createdAt,value
2023-03-02T00:02:56.864Z,66.38
2023-03-02T00:08:00.052Z,66.11
2023-03-02T00:13:02.513Z,65.84
2023-03-02T00:18:04.798Z,65.61
2023-03-02T00:23:06.907Z,66.42
2023-03-02T00:28:09.348Z,66.86
2023-03-02T00:33:11.523Z,67.81
2023-03-02T00:38:13.884Z,68.31
2023-03-02T00:43:17.018Z,67.82
2023-03-02T00:48:19.210Z,66.81
2023-03-02T00:53:21.278Z,66.76
2023-03-02T00:58:23.581Z,68.53
2023-03-02T01:03:26.100Z,69.09
2023-03-02T01:08:28.528Z,70.97
2023-03-02T01:13:30.583Z,70.46
2023-03-02T01:18:33.391Z,68.88
2023-03-02T01:23:35.903Z,67.58
2023-03-02T01:28:38.183Z,67.22
2023-03-02T01:33:40.321Z,67.02
2023-03-02T01:38:42.805Z,66.68
2023-03-02T01:43:44.968Z,66.68
2023-03-02T01:48:57.361Z,66.50
2023-03-02T01:54:05.138Z,66.11
2023-03-02T01:59:12.732Z,65.84
2023-03-02T02:04:15.322Z,65.86
2023-03-02T02:09:20.391Z,65.99
2023-03-02T02:14:22.956Z,65.73
2023-03-02T02:19:25.119Z,65.81
2023-03-02T02:24:40.200Z,65.88
2023-03-02T02:29:50.144Z,65.94
2023-03-02T02:34:52.101Z,65.90
2023-03-02T02:39:55.201Z,65.69
2023-03-02T02:45:02.229Z,65.26
2023-03-02T02:50:04.713Z,64.82
2023-03-02T02:55:07.335Z,64.66
2023-03-02T03:00:19.854Z,64.32
2023-03-02T03:05:22.177Z,64.24
2023-03-02T03:10:35.360Z,63.74
2023-03-02T03:15:37.809Z,64.27
2023-03-02T03:20:42.449Z,64.71
2023-03-02T03:25:44.621Z,64.88
2023-03-02T03:30:46.851Z,65.05
2023-03-02T03:35:49.225Z,65.10
2023-03-02T03:40:51.414Z,65.02
2023-03-02T03:45:53.623Z,65.09
2023-03-02T03:50:55.831Z,65.73
2023-03-02T03:55:58.095Z,66.03
2023-03-02T04:01:01.100Z,66.17
2023-03-02T04:06:03.290Z,66.22
2023-03-02T04:11:05.540Z,66.80
2023-03-02T04:16:07.975Z,66.70
2023-03-02T04:21:10.226Z,67.03
2023-03-02T04:26:12.430Z,67.56
2023-03-02T04:31:14.774Z,67.26
2023-03-02T04:36:17.063Z,67.78
2023-03-02T04:41:19.827Z,67.73
2023-03-02T04:46:24.425Z,67.84
2023-03-02T04:51:32.367Z,68.25
2023-03-02T04:56:35.187Z,68.32
2023-03-02T05:01:37.446Z,68.56
2023-03-02T05:06:40.003Z,68.75
2023-03-02T05:11:42.302Z,68.71
2023-03-02T05:16:44.505Z,68.52
2023-03-02T05:21:46.998Z,68.53
2023-03-02T05:26:49.185Z,68.55
2023-03-02T05:31:51.542Z,68.77
2023-03-02T05:36:53.943Z,68.99
2023-03-02T05:41:56.221Z,69.19
2023-03-02T05:46:58.452Z,68.29
2023-03-02T05:52:00.695Z,68.29
2023-03-02T05:57:03.002Z,68.16
2023-03-02T06:02:05.198Z,68.46
2023-03-02T06:07:07.396Z,68.30
2023-03-02T06:12:09.881Z,68.30
2023-03-02T06:17:12.000Z,67.92
2023-03-02T06:22:14.272Z,67.60
2023-03-02T06:27:16.444Z,67.87
2023-03-02T06:32:18.772Z,67.76
2023-03-02T06:37:21.082Z,67.16
2023-03-02T06:42:24.613Z,67.39
2023-03-02T06:47:26.801Z,67.10
2023-03-02T06:52:29.190Z,66.99
2023-03-02T06:57:34.365Z,67.07
2023-03-02T07:02:37.827Z,67.45
2023-03-02T07:07:40.473Z,66.98
2023-03-02T07:12:43.076Z,67.06
2023-03-02T07:17:46.092Z,67.00
2023-03-02T07:22:48.510Z,67.02
2023-03-02T07:27:50.771Z,66.93
2023-03-02T07:32:52.861Z,66.83
2023-03-02T07:37:55.214Z,66.64
2023-03-02T07:42:57.632Z,66.48
2023-03-02T07:47:59.884Z,66.54
2023-03-02T07:53:02.053Z,66.25
2023-03-02T07:58:04.281Z,66.10
2023-03-02T08:03:06.441Z,66.55
2023-03-02T08:08:08.561Z,66.69
2023-03-02T08:13:10.791Z,66.70
2023-03-02T08:18:13.005Z,66.88
2023-03-02T08:23:15.176Z,66.68
2023-03-02T08:28:17.320Z,67.30
2023-03-02T08:33:19.430Z,67.08
2023-03-02T08:38:21.602Z,67.39
2023-03-02T08:43:25.843Z,67.30
2023-03-02T08:48:29.065Z,67.57
2023-03-02T08:53:33.650Z,67.43
2023-03-02T08:58:35.831Z,67.58
2023-03-02T09:03:38.017Z,67.23
2023-03-02T09:08:40.630Z,67.26
2023-03-02T09:13:42.822Z,67.18
2023-03-02T09:18:45.035Z,67.13
2023-03-02T09:23:47.266Z,67.58
2023-03-02T09:28:49.599Z,67.54
2023-03-02T09:33:51.901Z,67.56
2023-03-02T09:38:55.239Z,67.85
2023-03-02T09:44:33.480Z,67.91
2023-03-02T09:49:54.335Z,68.07
2023-03-02T09:55:01.142Z,68.25
2023-03-02T10:00:19.132Z,68.06
2023-03-02T10:05:29.839Z,68.06
2023-03-02T10:10:45.459Z,68.21
2023-03-02T10:15:59.383Z,68.69
2023-03-02T10:21:24.022Z,69.19
2023-03-02T10:26:39.987Z,69.01
2023-03-02T10:31:43.777Z,69.27
2023-03-02T10:36:48.073Z,68.90
2023-03-02T10:42:08.005Z,68.81
2023-03-02T10:47:24.166Z,68.97
2023-03-02T10:52:28.926Z,69.13
2023-03-02T10:57:37.323Z,69.00
2023-03-02T11:02:39.550Z,68.72
2023-03-02T11:07:55.918Z,68.65
2023-03-02T11:12:59.287Z,68.57
2023-03-02T11:18:10.340Z,68.45
2023-03-02T11:23:27.081Z,68.83
2023-03-02T11:28:53.050Z,68.67
2023-03-02T11:34:18.236Z,68.83
2023-03-02T11:39:26.549Z,68.47
2023-03-02T11:44:30.169Z,68.84
2023-03-02T11:49:56.436Z,68.24
2023-03-02T11:55:06.712Z,67.57
2023-03-02T12:00:30.086Z,67.50
2023-03-02T12:05:36.194Z,67.12
2023-03-02T12:10:43.912Z,67.22
2023-03-02T12:15:51.267Z,67.00
2023-03-02T12:21:07.142Z,66.81
2023-03-02T12:26:37.345Z,65.79
2023-03-02T12:31:42.625Z,65.52
2023-03-02T12:36:45.427Z,65.47
2023-03-02T12:42:25.837Z,65.42
2023-03-02T12:47:30.413Z,65.01
2023-03-02T12:52:35.770Z,65.03
2023-03-02T12:57:49.853Z,64.82
2023-03-02T13:02:57.332Z,65.47
2023-03-02T13:08:25.648Z,65.62
2023-03-02T13:13:51.634Z,65.83
2023-03-02T13:18:57.504Z,65.80
2023-03-02T13:24:00.563Z,65.88
2023-03-02T13:29:15.045Z,65.34
2023-03-02T13:34:28.895Z,65.30
2023-03-02T13:39:32.284Z,65.40
2023-03-02T13:44:36.127Z,65.34
2023-03-02T13:49:38.261Z,65.71
2023-03-02T13:54:44.482Z,65.16
2023-03-02T13:59:46.700Z,65.15
2023-03-02T14:04:48.920Z,65.44
2023-03-02T14:09:51.342Z,65.87
2023-03-02T14:14:58.537Z,65.74
2023-03-02T14:20:00.971Z,65.38
2023-03-02T14:25:03.191Z,65.60
2023-03-02T14:30:22.158Z,65.95
2023-03-02T14:35:26.014Z,66.26
2023-03-02T14:40:28.796Z,66.27
2023-03-02T14:45:31.144Z,65.87
2023-03-02T14:50:39.074Z,65.75
2023-03-02T14:55:42.582Z,65.64
2023-03-02T15:00:45.508Z,66.05
2023-03-02T15:06:00.212Z,66.33
2023-03-02T15:11:03.319Z,66.34
2023-03-02T15:16:05.708Z,65.71
2023-03-02T15:21:12.479Z,66.03
2023-03-02T15:26:14.900Z,65.44
2023-03-02T15:31:17.623Z,64.98
2023-03-02T15:36:20.769Z,64.77
2023-03-02T15:41:23.157Z,64.33
2023-03-02T15:46:26.115Z,64.11
2023-03-02T15:51:28.280Z,64.20
2023-03-02T15:56:42.343Z,64.11
2023-03-02T16:01:46.222Z,64.55
2023-03-02T16:06:48.657Z,64.67
2023-03-02T16:11:52.021Z,64.59
2023-03-02T16:16:54.402Z,64.45
2023-03-02T16:21:56.700Z,64.34
2023-03-02T16:26:58.906Z,64.18
2023-03-02T16:32:01.143Z,63.87
2023-03-02T16:37:04.402Z,64.43
2023-03-02T16:42:06.745Z,64.31
2023-03-02T16:47:08.974Z,64.14
2023-03-02T16:52:11.401Z,64.54
2023-03-02T16:57:13.483Z,64.43
2023-03-02T17:02:16.369Z,64.22
2023-03-02T17:07:19.562Z,64.37
2023-03-02T17:12:21.712Z,64.41
2023-03-02T17:17:24.001Z,64.85
2023-03-02T17:22:26.218Z,65.24
2023-03-02T17:27:28.371Z,65.18
2023-03-02T17:32:30.637Z,65.42
2023-03-02T17:37:34.459Z,65.62
2023-03-02T17:42:39.055Z,66.07
2023-03-02T17:47:41.390Z,66.04
2023-03-02T17:52:43.542Z,66.33
2023-03-02T17:57:45.794Z,66.37
2023-03-02T18:02:48.525Z,66.20
2023-03-02T18:07:52.544Z,66.64
2023-03-02T18:12:55.163Z,67.04
2023-03-02T18:17:58.273Z,67.07
2023-03-02T18:23:00.812Z,67.45
2023-03-02T18:28:03.128Z,67.30
2023-03-02T18:33:05.617Z,67.27
2023-03-02T18:38:08.203Z,67.28
2023-03-02T18:43:10.575Z,67.71
2023-03-02T18:48:13.322Z,68.00
2023-03-02T18:53:15.869Z,67.88
2023-03-02T18:58:20.752Z,67.60
2023-03-02T19:03:25.206Z,67.91
2023-03-02T19:08:28.202Z,68.10
2023-03-02T19:13:30.422Z,68.26
2023-03-02T19:18:33.577Z,67.68
2023-03-02T19:23:35.758Z,68.08
2023-03-02T19:28:41.299Z,67.59
2023-03-02T19:33:45.549Z,68.00
2023-03-02T19:38:48.219Z,67.72
2023-03-02T19:43:50.677Z,67.81
2023-03-02T19:48:53.166Z,67.87
2023-03-02T19:53:55.508Z,67.75
2023-03-02T19:58:58.290Z,68.03
2023-03-02T20:04:01.191Z,67.72
2023-03-02T20:09:06.801Z,67.43
2023-03-02T20:14:09.124Z,67.89
2023-03-02T20:19:14.230Z,67.54
2023-03-02T20:24:17.414Z,67.63
2023-03-02T20:29:19.970Z,67.80
2023-03-02T20:34:22.451Z,68.26
2023-03-02T20:39:31.874Z,68.14
2023-03-02T20:44:35.218Z,68.31
2023-03-02T20:49:39.125Z,68.62
2023-03-02T20:54:43.157Z,68.46
2023-03-02T20:59:47.087Z,68.44
2023-03-02T21:04:49.773Z,68.42
2023-03-02T21:09:52.091Z,68.56
2023-03-02T21:14:54.831Z,68.82
2023-03-02T21:19:58.088Z,68.85
2023-03-02T21:25:00.387Z,68.87
2023-03-02T21:30:06.434Z,68.87
2023-03-02T21:35:10.436Z,68.60
2023-03-02T21:40:30.779Z,68.68
2023-03-02T21:45:35.044Z,69.24
2023-03-02T21:50:38.780Z,69.14
2023-03-02T21:55:41.002Z,68.85
2023-03-02T22:00:43.307Z,68.97
2023-03-02T22:05:45.716Z,69.07
2023-03-02T22:10:50.128Z,69.55
2023-03-02T22:16:15.682Z,69.35
2023-03-02T22:21:26.956Z,69.77
2023-03-02T22:26:29.181Z,69.96
2023-03-02T22:31:31.622Z,69.57
2023-03-02T22:36:34.300Z,69.94
2023-03-02T22:41:36.439Z,69.71
2023-03-02T22:46:38.724Z,70.01
2023-03-02T22:51:41.545Z,70.05
2023-03-02T22:56:46.901Z,70.26
2023-03-02T23:01:49.587Z,70.68
2023-03-02T23:06:57.047Z,70.38
2023-03-02T23:12:03.021Z,70.36
2023-03-02T23:17:34.967Z,70.11
2023-03-02T23:22:39.342Z,70.51
2023-03-02T23:27:41.537Z,71.39
2023-03-02T23:32:44.824Z,71.09
2023-03-02T23:37:47.114Z,70.91
2023-03-02T23:42:50.313Z,70.99
2023-03-02T23:47:52.787Z,70.96
2023-03-02T23:52:54.970Z,70.67
2023-03-02T23:57:57.096Z,70.93
